Time;durP1;ratioP1;P1;durP2;ratioP2;P2;SDS_P1;SDS_P2;PMS_P1;PMS_P2;Temp;Humidity;BMP_temperature;BMP_pressure;BME280_temperature;BME280_humidity;BME280_pressure;Samples;Min_cycle;Max_cycle;Signal;HPM_P1;HPM_P2
2021/07/26 00:00:23;;;;;;;9.35;8.75;;;;;;;19.05;86.94;99505.53;10536450;28;20058;-75
2021/07/26 00:05:25;;;;;;;9.00;8.20;;;;;;;19.19;85.67;99511.66;10537025;28;20047;-75
2021/07/26 00:10:26;;;;;;;8.95;8.05;;;;;;;19.57;81.68;99506.91;10518037;28;20044;-75
2021/07/26 00:15:29;;;;;;;9.20;8.50;;;;;;;19.24;84.46;99512.16;10536222;28;20380;-75
2021/07/26 00:20:30;;;;;;;9.18;8.43;;;;;;;19.08;86.55;99515.97;10535472;28;20040;-75
2021/07/26 00:25:32;;;;;;;9.82;9.02;;;;;;;18.99;86.67;99511.34;10535092;28;20481;-74
2021/07/26 00:30:35;;;;;;;9.10;8.40;;;;;;;19.01;86.41;99511.22;10535182;28;20450;-76
2021/07/26 00:35:36;;;;;;;9.93;9.23;;;;;;;19.05;86.48;99497.56;10520840;28;20055;-75
2021/07/26 00:40:38;;;;;;;7.82;7.20;;;;;;;19.13;86.44;99500.50;10525238;28;20111;-76
2021/07/26 00:45:40;;;;;;;9.60;8.80;;;;;;;19.34;84.50;99508.66;10543710;28;20048;-75
2021/07/26 00:50:41;;;;;;;9.68;8.45;;;;;;;19.06;86.17;99501.06;10543255;28;20062;-75
2021/07/26 00:55:43;;;;;;;8.93;8.40;;;;;;;19.09;86.17;99500.84;10543115;28;20044;-76
2021/07/26 01:00:44;;;;;;;10.20;9.20;;;;;;;19.49;83.20;99501.31;10543214;28;20064;-75
2021/07/26 01:05:46;;;;;;;9.25;8.60;;;;;;;19.16;84.85;99496.72;10542887;28;20143;-76
2021/07/26 01:10:48;;;;;;;10.02;9.18;;;;;;;18.95;86.24;99495.69;10527904;28;20136;-76
2021/07/26 01:15:50;;;;;;;10.50;9.45;;;;;;;19.18;84.88;99494.81;10545719;28;20043;-76
2021/07/26 01:21:00;;;;;;;10.25;9.25;;;;;;;19.21;84.30;99496.38;10527796;28;20051;-76
2021/07/26 01:26:04;;;;;;;9.55;8.88;;;;;;;19.14;84.12;99498.69;10545032;28;20044;-76
2021/07/26 01:31:06;;;;;;;9.32;8.07;;;;;;;18.74;86.03;99492.81;10545127;28;20443;-76
2021/07/26 01:36:09;;;;;;;9.93;9.20;;;;;;;18.80;86.20;99492.34;10545595;28;20196;-76
2021/07/26 01:41:21;;;;;;;10.30;8.88;;;;;;;18.86;85.25;99492.78;10525735;28;20080;-75
2021/07/26 01:46:35;;;;;;;11.40;10.35;;;;;;;18.57;86.34;99497.53;10524480;28;20146;-76
2021/07/26 01:51:42;;;;;;;11.65;10.73;;;;;;;18.35;87.59;99497.41;10509001;28;20044;-77
2021/07/26 01:56:43;;;;;;;13.00;11.70;;;;;;;18.25;88.68;99491.06;10524958;28;20047;-77
2021/07/26 02:01:45;;;;;;;12.15;11.15;;;;;;;18.26;88.14;99506.91;10544207;28;20036;-76
2021/07/26 02:06:46;;;;;;;11.38;10.65;;;;;;;18.65;86.56;99516.47;10542921;28;20102;-76
2021/07/26 02:11:48;;;;;;;12.70;11.60;;;;;;;18.34;87.28;99522.31;10524808;28;20131;-76
2021/07/26 02:16:52;;;;;;;12.30;11.50;;;;;;;18.17;88.28;99520.84;10543064;28;20472;-77
2021/07/26 02:21:53;;;;;;;11.30;10.52;;;;;;;18.17;88.02;99515.53;10542255;28;20047;-76
2021/07/26 02:26:55;;;;;;;11.75;10.52;;;;;;;18.10;88.41;99531.06;10542784;28;20059;-77
2021/07/26 02:31:58;;;;;;;11.85;10.88;;;;;;;18.48;85.56;99527.50;10535078;22;20052;-73
2021/07/26 02:36:59;;;;;;;13.30;10.18;;;;;;;18.38;85.55;99524.66;10522812;28;20078;-73
2021/07/26 02:42:02;;;;;;;11.15;9.98;;;;;;;18.13;87.11;99530.00;10539379;28;20434;-74
2021/07/26 02:47:04;;;;;;;10.45;9.85;;;;;;;17.88;88.42;99530.88;10539482;28;20082;-74
2021/07/26 02:52:06;;;;;;;11.75;10.93;;;;;;;17.75;89.46;99533.56;10519651;28;20146;-74
2021/07/26 02:57:07;;;;;;;12.40;11.43;;;;;;;17.98;88.21;99545.25;10520925;28;20056;-73
2021/07/26 03:02:09;;;;;;;12.23;11.32;;;;;;;17.96;87.44;99548.97;10520347;28;20054;-73
2021/07/26 03:07:11;;;;;;;12.32;11.43;;;;;;;17.77;88.92;99562.69;10502903;28;20119;-73
2021/07/26 03:12:12;;;;;;;12.45;11.45;;;;;;;17.66;90.02;99563.38;10536818;28;20032;-73
2021/07/26 03:17:14;;;;;;;14.10;13.10;;;;;;;17.65;90.80;99559.88;10519976;28;20063;-73
2021/07/26 03:22:48;;;;;;;13.32;12.15;;;;;;;17.85;89.73;99560.38;10539577;28;20095;-73
2021/07/26 03:27:51;;;;;;;12.98;11.70;;;;;;;18.11;87.30;99569.19;10519740;28;20048;-74
2021/07/26 03:32:53;;;;;;;10.80;9.90;;;;;;;17.96;87.99;99565.78;10538446;28;20071;-73
2021/07/26 03:37:55;;;;;;;12.43;11.48;;;;;;;18.01;87.27;99562.78;10519251;28;20048;-73
2021/07/26 03:42:56;;;;;;;12.93;12.02;;;;;;;17.71;88.88;99568.38;10540600;28;20538;-73
2021/07/26 03:47:59;;;;;;;12.73;11.75;;;;;;;17.60;89.94;99563.81;10517866;28;20463;-74
2021/07/26 03:53:01;;;;;;;12.50;11.55;;;;;;;17.62;90.16;99568.09;10535784;28;20044;-73
2021/07/26 03:58:06;;;;;;;13.73;12.93;;;;;;;17.94;88.02;99569.50;10536730;28;20138;-73
2021/07/26 04:03:28;;;;;;;14.70;13.27;;;;;;;17.95;87.91;99565.88;10539130;28;20413;-72
2021/07/26 04:08:33;;;;;;;14.50;13.38;;;;;;;17.81;89.21;99573.00;10501423;28;20533;-73
2021/07/26 04:13:35;;;;;;;15.23;14.05;;;;;;;17.74;90.13;99578.84;10536616;28;20048;-73
2021/07/26 04:18:37;;;;;;;16.20;14.88;;;;;;;17.76;90.50;99569.81;10517679;28;20044;-73
2021/07/26 04:23:39;;;;;;;15.02;13.95;;;;;;;17.85;89.79;99574.50;10535546;28;20059;-74
2021/07/26 04:28:40;;;;;;;15.95;14.10;;;;;;;18.04;89.54;99579.38;10518722;28;20089;-73
2021/07/26 04:33:42;;;;;;;14.45;13.35;;;;;;;18.07;89.76;99573.88;10516374;28;20074;-73
2021/07/26 04:38:44;;;;;;;16.58;15.07;;;;;;;18.17;89.66;99567.91;10534992;28;20072;-73
2021/07/26 04:43:45;;;;;;;14.93;13.82;;;;;;;18.29;88.74;99570.53;10517042;28;20040;-74
2021/07/26 04:48:47;;;;;;;15.35;14.20;;;;;;;18.40;87.95;99569.75;10536563;28;20040;-73
2021/07/26 04:53:48;;;;;;;15.45;14.25;;;;;;;18.56;88.17;99565.06;10534430;28;20413;-74
2021/07/26 04:58:50;;;;;;;13.85;12.75;;;;;;;18.96;86.54;99572.81;10534749;28;20040;-73
2021/07/26 05:03:51;;;;;;;14.95;13.88;;;;;;;19.12;86.24;99570.72;10533615;28;20048;-73
2021/07/26 05:08:53;;;;;;;13.98;12.95;;;;;;;19.16;86.17;99563.34;10535281;28;20064;-73
2021/07/26 05:13:54;;;;;;;14.65;12.65;;;;;;;19.45;84.61;99561.16;10532958;28;20110;-73
2021/07/26 05:18:56;;;;;;;11.27;10.52;;;;;;;19.92;80.16;99578.00;10532663;28;20067;-73
2021/07/26 05:23:58;;;;;;;10.85;10.07;;;;;;;20.03;79.09;99586.03;10539462;28;20078;-72
2021/07/26 05:28:59;;;;;;;9.55;8.93;;;;;;;20.16;79.97;99593.94;10522472;28;20462;-74
2021/07/26 05:34:01;;;;;;;10.70;9.68;;;;;;;20.64;76.74;99586.53;10524419;28;20083;-73
2021/07/26 05:39:03;;;;;;;10.52;9.73;;;;;;;20.70;76.91;99585.19;10540500;28;20101;-73
2021/07/26 05:44:04;;;;;;;10.93;9.88;;;;;;;20.80;74.29;99585.28;10521337;28;20104;-73
2021/07/26 05:49:06;;;;;;;9.40;8.70;;;;;;;20.99;74.64;99573.97;10521659;28;20040;-73
2021/07/26 05:54:08;;;;;;;9.45;8.55;;;;;;;21.22;73.45;99577.41;10524580;28;20052;-74
2021/07/26 05:59:10;;;;;;;9.05;7.82;;;;;;;21.50;73.54;99573.28;10539721;28;20056;-73
2021/07/26 06:04:11;;;;;;;9.55;8.48;;;;;;;21.62;72.95;99572.25;10521606;28;20469;-73
2021/07/26 06:09:14;;;;;;;9.65;8.88;;;;;;;22.58;70.50;99577.28;10539895;28;20040;-73
2021/07/26 06:14:15;;;;;;;9.73;8.73;;;;;;;22.64;69.36;99576.72;10541293;28;20051;-73
2021/07/26 06:19:19;;;;;;;15.73;8.85;;;;;;;22.48;70.11;99580.88;10538896;28;20040;-73
2021/07/26 06:24:21;;;;;;;8.50;7.80;;;;;;;23.10;67.32;99582.47;10538136;28;20063;-73
2021/07/26 06:29:24;;;;;;;12.95;9.45;;;;;;;22.60;68.79;99579.81;10538482;28;20040;-73
2021/07/26 06:34:26;;;;;;;8.65;8.05;;;;;;;22.60;70.51;99590.53;10537509;28;20062;-74
2021/07/26 06:39:29;;;;;;;8.20;7.50;;;;;;;22.66;70.44;99596.16;10521333;28;20087;-74
2021/07/26 06:44:31;;;;;;;13.25;8.60;;;;;;;22.79;71.57;99590.56;10538022;28;20058;-75
2021/07/26 06:49:32;;;;;;;9.27;8.40;;;;;;;23.71;68.01;99590.25;10537514;28;20068;-74
2021/07/26 06:54:34;;;;;;;7.68;6.93;;;;;;;24.24;66.22;99572.75;10522155;28;20147;-74
2021/07/26 06:59:35;;;;;;;8.13;7.05;;;;;;;24.07;64.61;99580.56;10538753;28;20181;-73
2021/07/26 07:04:37;;;;;;;7.60;7.10;;;;;;;24.10;65.77;99576.75;10536921;28;20114;-74
2021/07/26 07:09:45;;;;;;;12.73;7.72;;;;;;;23.80;67.02;99580.50;10520409;28;20044;-74
2021/07/26 07:14:46;;;;;;;7.95;7.25;;;;;;;24.07;66.82;99583.25;10518020;28;20048;-74
2021/07/26 07:19:49;;;;;;;7.80;7.13;;;;;;;24.69;65.29;99586.28;10538609;28;20043;-73
2021/07/26 07:24:51;;;;;;;7.95;6.97;;;;;;;24.85;63.00;99586.47;10535204;28;20125;-73
2021/07/26 07:29:55;;;;;;;8.25;7.45;;;;;;;24.94;62.86;99590.09;10534997;28;20139;-73
2021/07/26 07:34:58;;;;;;;7.47;6.68;;;;;;;25.34;60.67;99589.69;10535859;28;20089;-73
2021/07/26 07:40:00;;;;;;;5.05;4.53;;;;;;;25.69;60.11;99587.13;10535395;28;20063;-72
2021/07/26 07:45:04;;;;;;;4.65;4.25;;;;;;;26.02;54.42;99591.75;10536046;28;20058;-73
2021/07/26 07:50:06;;;;;;;4.13;3.83;;;;;;;26.21;56.32;99595.22;10533574;28;20084;-73
2021/07/26 07:55:08;;;;;;;4.93;3.38;;;;;;;26.63;53.18;99598.84;10534141;28;20058;-73
2021/07/26 08:00:12;;;;;;;3.85;3.35;;;;;;;26.67;52.07;99597.50;10534215;28;20129;-73
2021/07/26 08:05:15;;;;;;;4.38;4.05;;;;;;;26.74;52.31;99602.25;10535982;28;20043;-73
2021/07/26 08:10:17;;;;;;;4.45;3.90;;;;;;;26.63;51.82;99603.41;10533587;28;20044;-73
2021/07/26 08:15:19;;;;;;;4.20;3.90;;;;;;;26.19;53.30;99605.31;10515475;28;20101;-74
2021/07/26 08:20:21;;;;;;;4.72;4.32;;;;;;;26.65;54.87;99602.25;10533976;28;20040;-74
2021/07/26 08:25:22;;;;;;;4.05;3.65;;;;;;;26.95;51.09;99610.75;10535206;28;20048;-74
2021/07/26 08:30:28;;;;;;;4.00;3.40;;;;;;;27.22;50.70;99598.03;10547913;22;20040;-75
2021/07/26 08:35:34;;;;;;;4.90;4.38;;;;;;;27.34;50.69;99591.31;10523412;28;20123;-75
2021/07/26 08:40:36;;;;;;;3.60;3.40;;;;;;;27.55;49.58;99591.66;10540753;28;20062;-75
2021/07/26 08:45:38;;;;;;;5.13;3.42;;;;;;;28.02;46.40;99599.06;10541594;28;20036;-75
2021/07/26 08:50:42;;;;;;;3.80;3.50;;;;;;;28.14;46.10;99599.53;10541487;28;20040;-75
2021/07/26 08:55:43;;;;;;;3.55;3.22;;;;;;;28.09;46.21;99602.78;10524915;28;20048;-74
2021/07/26 09:00:45;;;;;;;3.88;3.45;;;;;;;28.71;45.68;99596.69;10548088;28;20044;-74
2021/07/26 09:05:47;;;;;;;3.67;3.33;;;;;;;28.73;47.33;99604.63;10549428;28;20063;-75
2021/07/26 09:10:48;;;;;;;3.83;3.33;;;;;;;28.93;46.11;99603.16;10548226;28;20546;-74
2021/07/26 09:15:52;;;;;;;3.72;3.30;;;;;;;28.96;45.48;99596.59;10528981;28;20118;-73
2021/07/26 09:20:57;;;;;;;3.40;3.10;;;;;;;29.46;46.26;99603.38;10546333;28;20036;-74
2021/07/26 09:26:00;;;;;;;3.17;2.97;;;;;;;29.54;44.42;99606.03;10545726;28;20093;-74
2021/07/26 09:31:04;;;;;;;3.83;3.35;;;;;;;30.01;43.64;99594.09;10527169;28;20036;-73
2021/07/26 09:36:09;;;;;;;3.13;2.92;;;;;;;30.51;42.55;99598.84;10544289;28;20097;-73
2021/07/26 09:41:13;;;;;;;3.42;3.17;;;;;;;30.40;41.41;99586.56;10543995;28;20040;-74
2021/07/26 09:46:26;;;;;;;3.58;3.28;;;;;;;30.65;41.10;99589.00;10527112;28;20044;-74
2021/07/26 09:51:28;;;;;;;4.07;3.67;;;;;;;30.56;41.38;99585.56;10543236;28;20031;-74
2021/07/26 09:56:32;;;;;;;3.25;2.95;;;;;;;29.25;43.16;99585.91;10525240;28;20044;-73
2021/07/26 10:01:34;;;;;;;3.65;3.08;;;;;;;30.13;42.33;99582.63;10526644;28;20347;-74
2021/07/26 10:06:36;;;;;;;2.90;2.70;;;;;;;30.13;41.92;99581.78;10541500;28;20071;-74
2021/07/26 10:11:38;;;;;;;3.38;3.08;;;;;;;29.81;41.98;99593.78;10542655;28;20382;-74
2021/07/26 10:16:40;;;;;;;3.13;2.92;;;;;;;29.31;44.11;99595.19;10542716;28;20040;-74
2021/07/26 10:21:42;;;;;;;3.00;2.80;;;;;;;30.11;42.71;99589.28;10542217;28;20044;-74
2021/07/26 10:26:45;;;;;;;3.53;2.92;;;;;;;30.63;41.52;99586.47;10524434;28;20048;-74
2021/07/26 10:31:47;;;;;;;3.30;3.00;;;;;;;30.56;40.64;99576.56;10541705;28;20066;-74
2021/07/26 10:36:52;;;;;;;3.50;3.20;;;;;;;30.47;42.70;99575.00;10523973;28;20054;-74
2021/07/26 10:41:55;;;;;;;3.40;2.75;;;;;;;30.35;42.78;99571.91;10524678;28;20045;-74
2021/07/26 10:46:57;;;;;;;3.30;3.00;;;;;;;30.81;41.58;99563.53;10541259;28;20052;-74
2021/07/26 10:51:58;;;;;;;2.88;2.67;;;;;;;31.68;41.61;99571.56;10541454;28;20036;-74
2021/07/26 10:57:00;;;;;;;2.50;2.40;;;;;;;32.02;37.62;99567.25;10522048;28;20055;-74
2021/07/26 11:02:03;;;;;;;2.67;2.45;;;;;;;31.63;38.20;99564.00;10539847;28;20066;-74
2021/07/26 11:07:06;;;;;;;3.10;2.80;;;;;;;31.33;41.75;99568.72;10540395;28;20132;-73
2021/07/26 11:12:09;;;;;;;3.33;2.70;;;;;;;31.77;36.78;99564.09;10539714;28;20381;-74
2021/07/26 11:17:11;;;;;;;3.20;3.00;;;;;;;31.76;38.12;99549.69;10523148;28;20123;-74
2021/07/26 11:22:16;;;;;;;2.67;2.47;;;;;;;31.75;37.93;99556.16;10522580;28;20063;-74
2021/07/26 11:27:29;;;;;;;3.55;2.92;;;;;;;31.83;38.01;99553.31;10524115;28;20127;-75
2021/07/26 11:32:31;;;;;;;2.92;2.63;;;;;;;32.12;38.28;99551.41;10540021;28;20040;-73
2021/07/26 11:37:38;;;;;;;2.72;2.53;;;;;;;32.73;37.21;99540.66;10541990;28;20390;-74
2021/07/26 11:42:41;;;;;;;3.15;2.95;;;;;;;32.15;38.44;99551.84;10541877;28;20051;-76
2021/07/26 11:47:45;;;;;;;3.28;2.70;;;;;;;32.46;35.29;99538.88;10524823;28;20481;-75
2021/07/26 11:52:57;;;;;;;3.45;2.30;;;;;;;32.11;35.27;99538.88;10524682;28;20043;-75
2021/07/26 11:58:03;;;;;;;4.07;2.00;;;;;;;32.48;34.49;99523.16;10523621;28;20040;-75
2021/07/26 12:03:05;;;;;;;2.30;2.10;;;;;;;33.07;35.10;99511.63;10502827;28;20412;-76
2021/07/26 12:08:15;;;;;;;2.30;2.00;;;;;;;33.11;32.73;99511.00;10503668;28;20050;-76
2021/07/26 12:13:19;;;;;;;4.20;1.83;;;;;;;33.07;34.60;99508.91;10543973;28;20193;-76
2021/07/26 12:18:31;;;;;;;2.92;2.20;;;;;;;33.09;33.50;99506.84;10535677;28;20047;-76
2021/07/26 12:23:35;;;;;;;2.30;2.10;;;;;;;33.15;33.80;99509.53;10524859;28;20531;-75
2021/07/26 12:28:45;;;;;;;4.95;2.70;;;;;;;32.99;34.25;99501.81;10540630;28;20105;-75
2021/07/26 12:33:46;;;;;;;2.30;2.20;;;;;;;32.11;37.71;99501.63;10540601;28;20040;-75
2021/07/26 12:39:04;;;;;;;2.67;2.47;;;;;;;31.91;36.66;99497.94;10542718;28;20040;-75
2021/07/26 12:44:17;;;;;;;2.50;2.30;;;;;;;31.47;38.45;99495.53;10507148;28;20516;-74
2021/07/26 12:49:21;;;;;;;2.10;2.00;;;;;;;31.34;38.05;99494.41;10542959;28;20101;-75
2021/07/26 12:54:23;;;;;;;2.17;1.95;;;;;;;31.37;36.86;99499.41;10542649;28;20040;-75
2021/07/26 12:59:25;;;;;;;3.00;2.80;;;;;;;32.13;36.86;99504.97;10541127;28;20175;-74
2021/07/26 13:04:27;;;;;;;3.45;2.35;;;;;;;32.46;35.65;99504.34;10540873;28;20040;-75
2021/07/26 13:09:28;;;;;;;2.35;2.25;;;;;;;32.13;35.53;99504.97;10541640;28;20113;-74
2021/07/26 13:14:30;;;;;;;2.88;2.42;;;;;;;31.78;37.73;99511.41;10540879;28;20048;-75
2021/07/26 13:19:33;;;;;;;2.60;2.40;;;;;;;31.47;36.08;99501.78;10540400;28;20124;-75
2021/07/26 13:24:34;;;;;;;2.42;2.22;;;;;;;31.21;36.84;99507.81;10540269;28;20076;-76
2021/07/26 13:29:36;;;;;;;2.40;2.15;;;;;;;30.91;37.00;99509.81;10541748;28;20047;-75
2021/07/26 13:34:53;;;;;;;2.85;2.40;;;;;;;30.38;38.14;99520.03;10541021;28;20201;-76
2021/07/26 13:39:56;;;;;;;2.42;2.22;;;;;;;29.98;38.31;99503.19;10541881;28;20445;-76
2021/07/26 13:44:59;;;;;;;2.30;2.00;;;;;;;29.40;41.42;99505.59;10528431;28;20044;-75
2021/07/26 13:50:02;;;;;;;2.83;2.22;;;;;;;29.32;38.50;99504.84;10550024;28;20494;-75
2021/07/26 13:55:05;;;;;;;2.53;2.33;;;;;;;29.21;39.51;99507.97;10551878;28;20055;-74
2021/07/26 14:00:07;;;;;;;3.28;2.10;;;;;;;29.23;39.30;99522.16;10547500;28;20513;-74
2021/07/26 14:05:17;;;;;;;4.20;2.47;;;;;;;28.52;41.18;99527.66;10528821;28;20044;-75
2021/07/26 14:10:19;;;;;;;1.90;1.80;;;;;;;28.28;40.54;99531.25;10547567;28;20044;-75
2021/07/26 14:15:26;;;;;;;2.17;1.98;;;;;;;28.00;41.86;99533.56;10549248;28;20501;-76
2021/07/26 14:20:27;;;;;;;2.45;2.28;;;;;;;27.75;41.74;99550.81;10548804;28;20058;-75
2021/07/26 14:25:29;;;;;;;2.95;2.70;;;;;;;26.96;46.05;99553.13;10531750;28;20050;-74
2021/07/26 14:30:34;;;;;;;4.23;2.87;;;;;;;25.71;50.79;99555.50;10546698;28;20071;-73
2021/07/26 14:35:37;;;;;;;3.72;2.75;;;;;;;24.97;52.87;99589.81;10546867;28;20524;-72
2021/07/26 14:40:39;;;;;;;8.18;2.80;;;;;;;24.11;55.82;99607.97;10545321;28;20501;-72
2021/07/26 14:45:43;;;;;;;3.85;2.35;;;;;;;23.25;58.51;99612.41;10542092;28;20107;-73
2021/07/26 14:50:51;;;;;;;4.22;2.65;;;;;;;22.61;61.73;99610.97;10523080;28;20040;-73
2021/07/26 14:56:01;;;;;;;2.50;2.20;;;;;;;22.11;62.61;99622.41;10524377;28;20150;-72
2021/07/26 15:01:03;;;;;;;2.17;1.90;;;;;;;22.16;61.89;99597.94;10543020;28;20058;-73
2021/07/26 15:06:12;;;;;;;3.72;2.60;;;;;;;22.23;60.92;99604.47;10542497;28;20533;-72
2021/07/26 15:11:16;;;;;;;8.43;2.40;;;;;;;22.47;61.49;99638.97;10522993;28;20044;-73
2021/07/26 15:16:18;;;;;;;2.35;2.03;;;;;;;22.66;59.71;99646.22;10517076;28;20090;-73
2021/07/26 15:21:20;;;;;;;2.17;1.77;;;;;;;22.91;58.45;99639.59;10521461;28;20041;-73
2021/07/26 15:26:22;;;;;;;2.97;1.95;;;;;;;22.92;57.39;99633.22;10522703;28;20044;-73
2021/07/26 15:31:24;;;;;;;3.45;2.00;;;;;;;22.90;58.74;99617.28;10520520;28;20066;-72
2021/07/26 15:36:25;;;;;;;1.50;1.40;;;;;;;23.43;58.53;99605.38;10500827;28;20149;-73
2021/07/26 15:41:29;;;;;;;1.95;1.67;;;;;;;23.84;57.17;99614.13;10502720;28;20079;-74
2021/07/26 15:46:31;;;;;;;3.60;1.80;;;;;;;24.86;56.61;99616.88;10538518;28;20080;-73
2021/07/26 15:51:33;;;;;;;1.92;1.50;;;;;;;24.83;54.89;99626.06;10520382;28;20043;-73
2021/07/26 15:56:40;;;;;;;1.70;1.60;;;;;;;26.77;48.94;99632.44;10520778;28;20488;-73
2021/07/26 16:01:42;;;;;;;4.22;1.73;;;;;;;27.52;48.09;99667.56;10519915;28;20044;-71
2021/07/26 16:06:43;;;;;;;1.98;1.88;;;;;;;26.87;49.05;99678.13;10517814;28;20063;-72
2021/07/26 16:11:45;;;;;;;1.85;1.75;;;;;;;26.93;50.73;99680.19;10518404;28;20031;-72
2021/07/26 16:16:47;;;;;;;1.58;1.48;;;;;;;27.38;47.49;99671.75;10537778;28;20519;-73
2021/07/26 16:21:50;;;;;;;1.75;1.65;;;;;;;26.62;48.10;99678.03;10525675;28;20527;-72
2021/07/26 16:26:52;;;;;;;2.75;2.50;;;;;;;25.84;50.58;99661.81;10544355;28;20123;-73
2021/07/26 16:31:54;;;;;;;1.88;1.70;;;;;;;25.80;50.05;99644.25;10544935;28;20044;-72
2021/07/26 16:36:56;;;;;;;1.60;1.40;;;;;;;25.98;49.31;99636.16;10544389;28;20040;-73
2021/07/26 16:42:03;;;;;;;1.75;1.65;;;;;;;25.69;52.61;99638.28;10545865;28;20115;-72
2021/07/26 16:47:05;;;;;;;3.13;2.20;;;;;;;25.66;52.52;99636.72;10543276;28;20099;-72
2021/07/26 16:52:07;;;;;;;1.95;1.70;;;;;;;25.11;53.94;99628.81;10539320;28;20078;-72
2021/07/26 16:57:09;;;;;;;2.17;1.98;;;;;;;24.92;54.74;99627.91;10518900;28;20044;-72
2021/07/26 17:02:11;;;;;;;2.47;2.08;;;;;;;24.85;55.28;99632.16;10537737;28;20040;-72
2021/07/26 17:07:13;;;;;;;2.20;1.98;;;;;;;24.67;56.76;99629.44;10538641;28;20036;-72
2021/07/26 17:12:16;;;;;;;2.38;1.70;;;;;;;24.89;55.71;99632.72;10540373;28;20036;-72
2021/07/26 17:17:17;;;;;;;3.03;1.67;;;;;;;24.91;53.99;99642.31;10537992;28;20486;-73
2021/07/26 17:22:20;;;;;;;1.70;1.60;;;;;;;24.55;52.97;99644.03;10547550;28;20040;-73
2021/07/26 17:27:22;;;;;;;1.83;1.73;;;;;;;24.39;55.71;99638.44;10548095;28;20488;-72
2021/07/26 17:32:24;;;;;;;1.90;1.80;;;;;;;24.72;56.14;99633.53;10542674;28;20054;-73
2021/07/26 17:37:27;;;;;;;1.98;1.77;;;;;;;24.53;55.47;99618.34;10542164;28;20438;-72
2021/07/26 17:42:28;;;;;;;2.38;2.17;;;;;;;24.78;54.17;99627.53;10542053;28;20040;-73
2021/07/26 17:47:30;;;;;;;2.58;1.80;;;;;;;24.57;57.18;99628.63;10542576;28;20039;-73
2021/07/26 17:52:35;;;;;;;2.53;2.33;;;;;;;24.44;59.40;99617.38;10525060;28;20043;-74
2021/07/26 17:57:37;;;;;;;3.28;2.53;;;;;;;24.30;60.93;99601.69;10526249;28;20066;-73
2021/07/26 18:02:39;;;;;;;2.38;2.28;;;;;;;24.04;62.50;99614.91;10545571;28;20055;-72
2021/07/26 18:07:46;;;;;;;4.72;2.63;;;;;;;23.92;62.44;99611.56;10545099;28;20073;-73
2021/07/26 18:12:50;;;;;;;3.42;2.92;;;;;;;23.70;63.25;99609.19;10545498;28;20062;-72
2021/07/26 18:18:08;;;;;;;3.05;2.45;;;;;;;23.50;64.17;99601.09;10528922;28;20109;-72
2021/07/26 18:23:10;;;;;;;3.13;2.45;;;;;;;23.65;63.35;99594.38;10544144;28;20036;-72
2021/07/26 18:28:12;;;;;;;3.53;2.40;;;;;;;23.64;63.65;99615.94;10542476;28;20055;-71
2021/07/26 18:33:14;;;;;;;3.50;2.85;;;;;;;23.35;64.80;99621.31;10524784;28;20193;-73
2021/07/26 18:38:15;;;;;;;3.10;2.50;;;;;;;23.36;65.33;99613.09;10543636;28;20078;-72
2021/07/26 18:43:17;;;;;;;3.83;2.92;;;;;;;22.95;67.39;99613.34;10545999;28;20059;-73
2021/07/26 18:48:19;;;;;;;3.08;2.78;;;;;;;22.81;67.71;99633.31;10544591;28;20036;-72
2021/07/26 18:53:21;;;;;;;3.85;2.67;;;;;;;23.06;65.84;99630.16;10545563;28;20039;-72
2021/07/26 18:58:23;;;;;;;4.50;2.83;;;;;;;22.82;66.60;99649.25;10543306;28;20052;-74
2021/07/26 19:03:25;;;;;;;4.60;2.75;;;;;;;22.58;67.78;99659.47;10543823;28;20028;-74
2021/07/26 19:08:27;;;;;;;4.32;3.33;;;;;;;22.30;68.07;99661.00;10526950;28;20134;-74
2021/07/26 19:13:29;;;;;;;2.80;2.50;;;;;;;22.35;68.52;99669.47;10544430;28;20101;-73
2021/07/26 19:18:31;;;;;;;4.43;3.60;;;;;;;22.26;68.76;99667.59;10543244;28;20055;-75
2021/07/26 19:23:34;;;;;;;4.10;3.30;;;;;;;22.22;69.17;99658.97;10543429;28;20106;-74
2021/07/26 19:28:38;;;;;;;5.20;3.75;;;;;;;22.17;70.12;99659.38;10543209;28;20485;-74
2021/07/26 19:33:40;;;;;;;3.72;3.40;;;;;;;22.00;70.91;99635.88;10525572;28;20036;-74
2021/07/26 19:38:41;;;;;;;6.13;3.85;;;;;;;21.98;70.25;99645.84;10525521;28;20528;-74
2021/07/26 19:43:46;;;;;;;4.03;3.53;;;;;;;22.11;70.61;99651.00;10507630;28;20143;-74
2021/07/26 19:48:48;;;;;;;3.80;3.50;;;;;;;21.74;71.97;99650.63;10540455;28;20048;-75
2021/07/26 19:53:51;;;;;;;4.85;4.30;;;;;;;21.82;72.70;99658.81;10540240;28;20047;-73
2021/07/26 19:58:53;;;;;;;4.60;4.20;;;;;;;21.88;73.41;99648.47;10538635;28;20051;-73
2021/07/26 20:03:54;;;;;;;5.20;4.35;;;;;;;21.60;74.57;99659.78;10537374;28;20047;-74
2021/07/26 20:08:57;;;;;;;4.32;3.97;;;;;;;21.51;74.98;99664.06;10538126;28;20508;-74
2021/07/26 20:13:59;;;;;;;5.00;4.60;;;;;;;21.27;75.79;99658.91;10519592;28;20071;-73
2021/07/26 20:19:03;;;;;;;7.63;4.65;;;;;;;21.23;76.18;99664.63;10539271;28;20044;-76
2021/07/26 20:24:05;;;;;;;4.57;4.22;;;;;;;21.08;76.83;99654.22;10519549;28;20052;-73
2021/07/26 20:29:06;;;;;;;5.40;4.85;;;;;;;20.86;77.55;99657.78;10517971;28;20052;-73
2021/07/26 20:34:08;;;;;;;4.38;3.97;;;;;;;21.11;75.78;99653.94;10535483;28;20044;-73
2021/07/26 20:39:10;;;;;;;4.97;4.57;;;;;;;20.84;77.72;99689.09;10535607;28;20139;-72
2021/07/26 20:44:12;;;;;;;4.95;4.57;;;;;;;20.55;79.29;99711.94;10535843;28;20077;-72
2021/07/26 20:49:14;;;;;;;5.25;4.85;;;;;;;20.38;79.59;99691.84;10534782;28;20139;-73
2021/07/26 20:54:15;;;;;;;5.10;4.65;;;;;;;20.35;79.84;99703.59;10523037;28;20093;-74
2021/07/26 20:59:17;;;;;;;4.93;4.53;;;;;;;20.45;78.96;99703.72;10528623;28;20070;-74
2021/07/26 21:04:19;;;;;;;4.93;4.63;;;;;;;20.35;78.83;99716.94;10527323;28;20047;-75
2021/07/26 21:09:21;;;;;;;6.35;4.18;;;;;;;20.44;78.25;99722.56;10527007;28;20055;-74
2021/07/26 21:14:27;;;;;;;4.63;4.18;;;;;;;20.23;79.36;99722.38;10527378;28;20098;-75
2021/07/26 21:19:29;;;;;;;;;;;;;;;20.08;79.21;99721.75;10530219;28;20431;-74
2021/07/26 21:24:31;;;;;;;4.55;4.22;;;;;;;20.15;79.31;99731.84;10528005;28;20334;-74
2021/07/26 21:29:33;;;;;;;5.03;4.63;;;;;;;20.16;78.65;99725.53;10532859;28;20550;-74
2021/07/26 21:34:36;;;;;;;5.30;4.90;;;;;;;20.16;79.42;99736.22;10548606;28;20109;-74
2021/07/26 21:39:37;;;;;;;3.50;3.30;;;;;;;20.24;78.57;99740.13;10531147;28;20084;-74
2021/07/26 21:44:39;;;;;;;5.80;5.35;;;;;;;19.72;80.45;99755.56;10546762;28;20062;-74
2021/07/26 21:49:41;;;;;;;5.38;4.88;;;;;;;19.66;81.74;99758.69;10556383;28;20051;-77
2021/07/26 21:55:00;;;;;;;5.63;4.95;;;;;;;19.57;82.36;99762.84;10561043;28;20086;-76
2021/07/26 22:00:04;;;;;;;7.05;5.28;;;;;;;19.57;82.39;99757.50;10539911;28;20059;-76
2021/07/26 22:05:14;;;;;;;5.88;5.32;;;;;;;19.65;82.14;99741.81;10554491;28;20071;-78
2021/07/26 22:10:16;;;;;;;5.88;5.30;;;;;;;20.11;79.69;99748.19;10548596;28;20040;-77
2021/07/26 22:15:18;;;;;;;5.35;4.95;;;;;;;19.91;79.90;99760.34;10548221;28;20051;-78
2021/07/26 22:20:19;;;;;;;6.20;5.70;;;;;;;19.44;82.44;99759.38;10530684;28;20482;-77
2021/07/26 22:25:21;;;;;;;5.45;5.10;;;;;;;19.31;83.04;99753.22;10531549;28;20480;-78
2021/07/26 22:30:22;;;;;;;8.02;5.30;;;;;;;19.31;82.97;99748.75;10549416;28;20047;-78
2021/07/26 22:35:24;;;;;;;5.38;5.07;;;;;;;19.38;82.66;99733.16;10531105;28;20048;-78
2021/07/26 22:40:26;;;;;;;6.22;5.55;;;;;;;19.46;82.53;99730.78;10550071;28;20048;-78
2021/07/26 22:45:28;;;;;;;5.60;5.13;;;;;;;19.76;81.76;99738.38;10552217;28;20071;-77
2021/07/26 22:50:29;;;;;;;5.20;4.80;;;;;;;19.69;80.64;99742.44;10550252;28;20063;-78
2021/07/26 22:55:31;;;;;;;5.07;4.47;;;;;;;19.68;79.46;99753.22;10536599;28;20382;-77
2021/07/26 23:00:33;;;;;;;4.20;3.75;;;;;;;19.38;78.57;99733.16;10532643;28;20102;-78
2021/07/26 23:05:34;;;;;;;5.05;4.65;;;;;;;19.48;76.27;99715.53;10547657;28;20106;-77
2021/07/26 23:10:37;;;;;;;4.32;4.03;;;;;;;19.04;78.59;99713.44;10529312;28;20044;-77
2021/07/26 23:15:38;;;;;;;3.95;3.65;;;;;;;18.89;77.90;99705.56;10529728;28;20135;-77
2021/07/26 23:20:40;;;;;;;4.78;4.40;;;;;;;18.84;78.69;99702.38;10530820;28;20055;-78